Latest Weather Observations for Badgerys Creek

IDN60901

Issued at 6:21 pm EST Friday 30 September 2016 (issued every 10 minutes, with the page automatically refreshed every 10 minutes)

About weather observations | Map of Sydney area stations | Latest observations for Sydney area | Other Formats
Station Details ID: 067108 Name: BADGERYS CREEK AWS Lat: -33.90 Lon: 150.73 Height: 81.2 m
Data from the previous 72 hours. | See also: Recent months at Badgerys Creek
Date/Time
EST
Temp
°C
App
Temp
°C
Dew
Point
°C
Rel
Hum
%
Delta-T
°C
Wind Press
QNH
hPa
Press
MSL
hPa
Rain since
9am
mm
Dir  Spd
km/h
Gust
km/h
Spd
kts
Gust
kts
30/06:00pm 13.3 9.1 5.5 59 3.7 WNW 17 24 9 13 999.7 999.6 0.0
30/05:30pm 14.7 8.4 5.8 55 4.3 NW 28 43 15 23 999.6 999.5 0.0
30/05:12pm 15.4 10.7 5.3 51 4.8 WNW 19 48 10 26 999.5 999.4 0.0
30/05:00pm 15.5 11.3 5.7 52 4.7 NW 17 24 9 13 999.3 999.2 0.0
30/04:30pm 14.7 10.1 5.8 55 4.3 NW 19 28 10 15 998.7 998.6 0.0
30/04:00pm 15.4 9.8 5.6 52 4.7 NNW 24 35 13 19 998.4 998.3 0.0
30/03:30pm 15.4 8.0 5.0 50 4.9 NW 33 52 18 28 998.2 998.1 0.0
30/03:00pm 16.6 9.9 5.6 48 5.4 NW 30 50 16 27 998.0 997.9 0.0
30/02:59pm 16.5 9.8 5.5 48 5.3 NW 30 50 16 27 998.0 997.9 0.0
30/02:30pm 17.1 10.0 6.3 49 5.3 NW 33 50 18 27 997.9 997.8 0.0
30/02:00pm 15.7 9.0 5.6 51 4.9 NNW 30 43 16 23 998.1 998.0 0.0
30/01:43pm 16.3 9.3 5.9 50 5.0 NW 32 52 17 28 998.1 998.0 0.0
30/01:30pm 15.7 8.5 5.9 52 4.7 NW 33 43 18 23 998.2 998.1 0.0
30/01:00pm 15.9 10.4 6.1 52 4.8 NNW 24 33 13 18 998.3 998.2 0.0
30/12:30pm 17.0 10.5 6.5 50 5.2 NW 30 43 16 23 998.1 998.0 0.0
30/12:05pm 17.3 11.4 7.4 52 5.0 NW 28 52 15 28 998.4 998.3 0.0
30/12:00pm 17.3 11.3 7.1 51 5.1 NW 28 43 15 23 998.4 998.3 0.0
30/11:30am 16.1 10.4 6.8 54 4.6 NW 26 41 14 22 998.7 998.6 0.0
30/11:00am 16.5 9.8 7.2 54 4.7 NW 32 44 17 24 998.5 998.4 0.0
30/10:30am 15.7 10.0 6.7 55 4.4 NW 26 37 14 20 998.6 998.5 0.0
30/10:00am 16.1 10.4 6.5 53 4.7 NNW 26 41 14 22 998.6 998.5 0.0
30/09:30am 15.9 10.1 6.1 52 4.8 NNW 26 35 14 19 998.4 998.3 0.0
30/09:00am 16.4 12.0 6.5 52 4.9 NNW 19 28 10 15 998.6 998.5 1.0
30/08:30am 16.1 11.8 6.8 54 4.6 NNW 19 30 10 16 998.6 998.5 1.0
30/08:00am 15.8 12.5 6.3 53 4.7 NW 13 22 7 12 998.6 998.5 1.0
30/07:30am 14.7 10.5 5.8 55 4.3 NNW 17 26 9 14 998.4 998.3 1.0
30/07:00am 13.4 10.5 6.7 64 3.3 N 11 17 6 9 998.1 998.0 1.0
30/06:30am 11.4 7.1 5.3 66 2.8 N 17 24 9 13 997.6 997.5 1.0
30/06:00am 8.9 4.8 4.5 74 2.0 N 15 19 8 10 997.5 997.4 1.0
30/05:30am 8.0 3.8 3.8 75 1.8 N 15 20 8 11 997.4 997.3 1.0
30/05:00am 8.7 4.9 3.7 71 2.2 NNW 13 15 7 8 997.4 997.3 1.0
30/04:30am 8.5 4.3 3.9 73 2.0 N 15 15 8 8 997.3 997.2 1.0
30/04:00am 9.1 4.9 3.9 70 2.3 N 15 17 8 9 997.4 997.3 1.0
30/03:30am 8.0 4.2 3.8 75 1.8 N 13 15 7 8 997.7 997.6 1.0
30/03:00am 9.3 5.1 3.9 69 2.4 NNW 15 20 8 11 997.6 997.5 1.0
30/02:30am 10.3 5.5 4.5 67 2.6 NNW 19 24 10 13 997.8 997.7 1.0
30/02:00am 10.0 5.0 3.7 65 2.8 N 19 22 10 12 998.2 998.1 1.0
30/01:30am 11.4 6.2 3.4 58 3.5 NNW 20 30 11 16 998.8 998.7 1.0
30/01:00am 11.0 7.1 3.5 60 3.3 N 13 20 7 11 999.2 999.1 1.0
30/12:30am 10.5 7.5 4.0 64 2.9 NNE 9 11 5 6 999.5 999.4 1.0
30/12:00am 10.4 7.9 3.9 64 2.9 N 6 7 3 4 999.3 999.2 1.0
 
Date/Time
EST
Temp
°C
App
Temp
°C
Dew
Point
°C
Rel
Hum
%
Delta-T
°C
Wind Press
QNH
hPa
Press
MSL
hPa
Rain since
9am
mm
Dir  Spd
km/h
Gust
km/h
Spd
kts
Gust
kts
29/11:30pm 10.3 6.9 4.0 65 2.8 N 11 13 6 7 999.1 999.0 1.0
29/11:00pm 10.8 7.5 4.3 64 2.9 NNW 11 15 6 8 998.6 998.5 1.0
29/10:30pm 11.8 7.8 4.8 62 3.2 N 15 20 8 11 998.4 998.3 1.0
29/10:00pm 12.0 7.6 5.0 62 3.2 N 17 22 9 12 998.4 998.3 1.0
29/09:30pm 13.2 7.8 4.6 56 4.0 NNW 22 37 12 20 998.6 998.5 1.0
29/09:04pm 15.0 8.3 3.8 47 5.2 NW 28 65 15 35 998.3 998.2 1.0
29/09:00pm 14.5 9.4 3.3 47 5.1 NNW 19 48 10 26 998.2 998.1 1.0
29/08:30pm 13.6 9.4 3.9 52 4.4 NNW 15 19 8 10 997.5 997.4 1.0
29/08:00pm 14.4 10.8 5.0 53 4.4 NNW 13 22 7 12 997.2 997.1 1.0
29/07:30pm 12.4 9.4 5.8 64 3.1 NW 11 13 6 7 997.3 997.2 1.0
29/07:00pm 13.3 10.5 5.2 58 3.8 WNW 9 13 5 7 996.8 996.7 1.0
29/06:30pm 14.4 11.6 5.0 53 4.4 NW 9 13 5 7 996.1 996.0 1.0
29/06:00pm 14.6 11.0 4.9 52 4.6 WNW 13 17 7 9 995.6 995.5 1.0
29/05:30pm 17.4 11.6 4.4 42 6.2 WNW 24 43 13 23 995.4 995.3 1.0
29/05:00pm 18.8 13.2 5.3 41 6.6 NW 24 35 13 19 995.2 995.1 1.0
29/04:30pm 19.6 12.0 3.7 35 7.6 WNW 33 48 18 26 994.4 994.3 1.0
29/04:24pm 19.8 13.5 5.5 39 7.1 WNW 28 46 15 25 994.3 994.2 1.0
29/04:00pm 20.2 14.6 5.4 38 7.4 WNW 24 37 13 20 993.9 993.8 1.0
29/03:30pm 20.7 15.2 7.7 43 6.7 N 26 35 14 19 993.5 993.3 1.0
29/03:00pm 20.7 18.4 11.6 56 5.1 N 15 32 8 17 993.3 993.1 1.0
29/02:30pm 18.9 16.7 14.8 77 2.4 NNE 20 26 11 14 993.8 993.7 1.0
29/02:00pm 18.1 16.7 14.4 79 2.2 N 15 20 8 11 995.0 994.9 1.0
29/01:30pm 17.6 16.9 16.3 92 0.8 N 15 22 8 12 995.2 995.1 1.0
29/01:00pm 16.4 16.0 16.1 98 0.2 NNE 13 19 7 10 994.6 994.5 1.0
29/12:30pm 16.9 13.9 13.8 82 1.8 NNE 22 32 12 17 996.5 996.4 0.0
29/12:00pm 15.8 12.8 12.5 81 1.8 NNE 20 30 11 16 996.7 996.6 0.0
29/11:30am 15.7 14.0 13.5 87 1.2 NNE 15 24 8 13 997.3 997.2 0.0
29/11:00am 13.6 13.3 12.7 94 0.5 NE 6 11 3 6 998.5 998.4 0.0
29/10:30am 11.9 11.6 11.4 97 0.3 ENE 4 7 2 4 999.0 998.9 0.0
29/10:00am 11.3 10.9 11.1 99 0.1 SSW 4 6 2 3 999.9 999.8 0.0
29/09:30am 10.8 10.6 10.6 99 0.1 SSW 2 6 1 3 1000.2 1000.1 0.0
29/09:00am 10.4 10.5 10.2 99 0.1 CALM 0 2 0 1 1000.6 1000.5 3.2
29/08:30am 10.1 10.2 10.0 99 0.1 CALM 0 0 0 0 1001.1 1001.0 2.4
29/08:00am 9.7 9.3 9.7 100 0.0 SW 2 4 1 2 1001.6 1001.5 2.0
29/07:30am 9.4 8.5 9.3 99 0.0 S 4 7 2 4 1001.8 1001.7 1.4
29/07:00am 9.0 7.6 8.9 99 0.0 SSE 6 9 3 5 1001.3 1001.2 0.6
29/06:30am 8.9 8.3 8.8 99 0.0 SSW 2 4 1 2 1002.4 1002.3 0.0
29/06:00am 8.7 8.0 8.6 99 0.0 SSW 2 4 1 2 1002.5 1002.4 0.0
29/05:30am 8.5 7.3 8.2 98 0.1 SSW 4 6 2 3 1002.8 1002.7 0.0
29/05:00am 8.4 7.3 8.3 99 0.0 SSW 4 6 2 3 1003.3 1003.2 0.0
29/04:30am 8.2 6.6 8.1 99 0.0 SSW 6 7 3 4 1003.4 1003.3 0.0
29/04:00am 8.0 6.4 7.9 99 0.0 NE 6 7 3 4 1003.8 1003.7 0.0
29/03:30am 7.4 6.0 7.3 99 0.0 NE 4 6 2 3 1004.1 1004.1 0.0
29/03:00am 7.3 6.7 7.2 99 0.0 CALM 0 0 0 0 1005.0 1004.9 0.0
29/02:30am 7.0 6.3 6.9 99 0.0 CALM 0 0 0 0 1005.6 1005.5 0.0
29/02:00am 6.3 4.7 6.2 99 0.0 NE 4 4 2 2 1006.3 1006.2 0.0
29/01:30am 6.7 5.1 6.4 98 0.1 NE 4 4 2 2 1007.2 1007.1 0.0
29/01:00am 7.2 5.7 6.8 97 0.2 NE 4 6 2 3 1007.6 1007.5 0.0
29/12:30am 7.3 5.4 6.9 97 0.2 NE 6 6 3 3 1008.1 1008.0 0.0
29/12:00am 7.7 6.3 7.3 97 0.2 NE 4 4 2 2 1008.4 1008.3 0.0
 
Date/Time
EST
Temp
°C
App
Temp
°C
Dew
Point
°C
Rel
Hum
%
Delta-T
°C
Wind Press
QNH
hPa
Press
MSL
hPa
Rain since
9am
mm
Dir  Spd
km/h
Gust
km/h
Spd
kts
Gust
kts
28/11:30pm 8.3 6.9 7.4 94 0.4 NE 4 4 2 2 1008.8 1008.7 0.0
28/11:00pm 8.0 6.1 6.9 93 0.5 NE 6 6 3 3 1009.3 1009.2 0.0
28/10:30pm 9.3 8.7 7.3 87 0.9 CALM 0 0 0 0 1009.9 1009.8 0.0
28/10:00pm 9.3 8.5 6.7 84 1.2 CALM 0 0 0 0 1010.1 1010.0 0.0
28/09:30pm 9.7 9.0 7.1 84 1.2 CALM 0 0 0 0 1010.2 1010.1 0.0
28/09:00pm 10.3 8.8 6.8 79 1.7 NE 4 4 2 2 1010.4 1010.3 0.0
28/08:30pm 11.5 10.0 6.6 72 2.3 NE 4 4 2 2 1010.6 1010.5 0.0
28/08:00pm 13.4 11.8 6.3 62 3.4 NE 4 4 2 2 1010.6 1010.5 0.0
28/07:30pm 13.1 11.1 6.2 63 3.3 NE 6 7 3 4 1010.7 1010.6 0.0
28/07:00pm 13.3 11.3 6.4 63 3.3 NE 6 7 3 4 1010.4 1010.3 0.0
28/06:30pm 14.0 11.9 6.6 61 3.6 ENE 7 9 4 5 1010.1 1010.0 0.0
28/06:00pm 15.2 12.0 6.7 57 4.2 ENE 13 19 7 10 1009.8 1009.7 0.0
28/05:30pm 16.5 13.1 7.7 56 4.4 ENE 15 22 8 12 1009.8 1009.7 0.0
28/05:00pm 17.6 14.3 8.2 54 4.8 E 15 22 8 12 1009.8 1009.7 0.0
28/04:30pm 18.3 14.8 8.6 53 5.0 E 17 28 9 15 1009.6 1009.5 0.0
28/04:00pm 19.1 15.1 8.4 50 5.6 E 19 28 10 15 1009.7 1009.6 0.0
28/03:30pm 19.9 16.6 4.8 37 7.4 NE 11 22 6 12 1010.0 1009.9 0.0
28/03:00pm 20.3 17.5 5.1 37 7.5 NNE 9 15 5 8 1010.4 1010.3 0.0
28/02:30pm 20.4 17.8 6.0 39 7.2 N 9 19 5 10 1010.9 1010.8 0.0
28/02:00pm 20.1 18.4 5.7 39 7.2 ENE 4 11 2 6 1011.3 1011.2 0.0
28/01:30pm 20.1 17.4 5.7 39 7.2 NNE 9 15 5 8 1011.9 1011.8 0.0
28/01:00pm 20.4 18.2 6.0 39 7.2 NE 7 17 4 9 1012.4 1012.3 0.0
28/12:30pm 19.6 16.4 4.9 38 7.2 NNE 11 19 6 10 1012.7 1012.6 0.0
28/12:00pm 19.2 16.7 4.9 39 6.9 ENE 7 17 4 9 1013.0 1012.9 0.0
28/11:30am 18.9 16.6 5.0 40 6.8 WNW 6 13 3 7 1013.4 1013.3 0.0
28/11:00am 18.9 16.7 3.5 36 7.3 E 4 9 2 5 1013.7 1013.6 0.0
28/10:30am 18.0 15.9 6.5 47 5.7 SSE 7 13 4 7 1014.0 1013.9 0.0
28/10:00am 17.4 14.9 6.6 49 5.4 S 9 13 5 7 1014.3 1014.3 0.0
28/09:30am 16.8 14.8 7.2 53 4.8 S 7 13 4 7 1014.4 1014.4 0.0
28/09:00am 15.9 14.1 7.9 59 4.0 SW 7 13 4 7 1014.7 1014.7 0.0
28/08:30am 14.1 12.0 6.5 60 3.7 WSW 7 13 4 7 1014.8 1014.8 0.0
28/08:00am 12.6 11.4 6.4 66 3.0 N 2 4 1 2 1014.8 1014.8 0.0
28/07:30am 10.9 10.1 6.3 73 2.2 CALM 0 0 0 0 1014.9 1014.9 0.0
28/07:00am 8.9 7.3 6.2 83 1.2 N 4 6 2 3 1014.8 1014.8 0.0
28/06:30am 6.8 4.4 5.4 91 0.6 N 7 7 4 4 1014.3 1014.3 0.0
28/06:00am 4.5 3.2 3.9 96 0.3 CALM 0 0 0 0 1014.1 1014.0 0.0
28/05:30am 4.5 3.1 3.8 95 0.3 CALM 0 0 0 0 1013.8 1013.7 0.0
28/05:00am 4.9 2.8 3.7 92 0.5 N 4 6 2 3 1013.7 1013.6 0.0
28/04:30am 5.3 3.9 3.6 89 0.7 CALM 0 2 0 1 1013.6 1013.5 0.0
28/04:00am 5.0 2.4 3.2 88 0.7 NNW 6 9 3 5 1013.5 1013.4 0.0
28/03:30am 5.7 3.9 3.5 86 0.9 S 2 4 1 2 1013.5 1013.4 0.0
28/03:00am 6.2 4.4 3.7 84 1.1 S 2 4 1 2 1013.3 1013.2 0.0
28/02:30am 6.2 3.9 3.0 80 1.3 S 4 6 2 3 1013.3 1013.2 0.0
28/02:00am 6.0 4.2 3.5 84 1.1 S 2 4 1 2 1013.1 1013.0 0.0
28/01:30am 7.3 4.7 3.4 76 1.7 WSW 6 7 3 4 1013.1 1013.0 0.0
28/01:00am 9.7 7.6 3.7 66 2.6 S 4 4 2 2 1013.3 1013.2 0.0
28/12:30am 8.8 6.2 3.4 69 2.3 SSW 6 7 3 4 1013.3 1013.2 0.0
28/12:00am 8.8 5.7 3.4 69 2.3 SW 9 9 5 5 1013.3 1013.2 0.0
 
Date/Time
EST
Temp
°C
App
Temp
°C
Dew
Point
°C
Rel
Hum
%
Delta-T
°C
Wind Press
QNH
hPa
Press
MSL
hPa
Rain since
9am
mm
Dir  Spd
km/h
Gust
km/h
Spd
kts
Gust
kts
27/11:30pm 9.0 6.2 3.0 66 2.6 WSW 7 11 4 6 1013.3 1013.2 0.0
27/11:00pm 8.9 5.8 3.5 69 2.3 SW 9 15 5 8 1013.3 1013.2 0.0
27/10:30pm 8.5 5.9 3.4 70 2.2 SSW 6 7 3 4 1013.2 1013.1 0.0
27/10:00pm 9.2 6.6 3.2 66 2.6 S 6 13 3 7 1013.2 1013.1 0.0
27/09:30pm 10.4 8.2 3.2 61 3.1 E 4 6 2 3 1013.1 1013.0 0.0
27/09:00pm 10.0 7.3 2.8 61 3.1 WNW 6 7 3 4 1012.8 1012.7 0.0
27/08:30pm 12.0 9.7 2.5 52 4.1 SW 4 6 2 3 1012.6 1012.5 0.0
27/08:00pm 12.7 10.8 2.8 51 4.4 WSW 2 9 1 5 1012.4 1012.3 0.0
27/07:30pm 11.7 8.4 2.7 54 3.9 WSW 9 13 5 7 1011.9 1011.8 0.0
27/07:00pm 13.1 10.4 2.6 49 4.6 WSW 6 7 3 4 1011.7 1011.6 0.0
27/06:30pm 13.5 9.9 2.7 48 4.8 SW 11 17 6 9 1011.3 1011.2 0.0

Latest Capital City Observations: Canberra | Sydney | Melbourne | Brisbane | Adelaide | Perth | Hobart | Darwin

Other Formats:

Comma delimited format used in spreadsheet applications
http://www.bom.gov.au/fwo/IDN60901/IDN60901.94752.axf

JavaScript Object Notation format (JSON) in row-major order
http://www.bom.gov.au/fwo/IDN60901/IDN60901.94752.json